Time;durP1;ratioP1;P1;durP2;ratioP2;P2;SDS_P1;SDS_P2;PMS_P1;PMS_P2;Temp;Humidity;BMP_temperature;BMP_pressure;BME280_temperature;BME280_humidity;BME280_pressure;Samples;Min_cycle;Max_cycle;Signal;HPM_P1;HPM_P2
2022/04/11 00:00:04;;;;;;;6.93;2.80;;;;;;;;;;5049592;28;20076;-61
2022/04/11 00:02:30;;;;;;;11.20;3.45;;;;;;;;;;5036930;28;20067;-60
2022/04/11 00:04:56;;;;;;;6.35;3.00;;;;;;;;;;5056178;28;20044;-60
2022/04/11 00:07:22;;;;;;;6.72;3.15;;;;;;;;;;5050673;28;20116;-61
2022/04/11 00:09:48;;;;;;;6.43;3.33;;;;;;;;;;5057944;28;20052;-60
2022/04/11 00:12:14;;;;;;;7.53;2.92;;;;;;;;;;5041787;28;20059;-60
2022/04/11 00:14:40;;;;;;;8.82;3.13;;;;;;;;;;5035750;28;20168;-60
2022/04/11 00:17:06;;;;;;;7.28;3.08;;;;;;;;;;5049091;28;20060;-60
2022/04/11 00:19:32;;;;;;;7.55;2.97;;;;;;;;;;5070954;28;20927;-60
2022/04/11 00:21:59;;;;;;;6.82;3.08;;;;;;;;;;5051901;28;20053;-61
2022/04/11 00:24:25;;;;;;;10.48;3.25;;;;;;;;;;5079939;28;20051;-60
2022/04/11 00:26:51;;;;;;;9.07;3.05;;;;;;;;;;5050270;28;20691;-60
2022/04/11 00:29:17;;;;;;;9.18;3.22;;;;;;;;;;5059054;28;20478;-60
2022/04/11 00:31:43;;;;;;;7.97;3.55;;;;;;;;;;5055888;28;20048;-61
2022/04/11 00:34:09;;;;;;;7.85;3.30;;;;;;;;;;5052958;28;20068;-61
2022/04/11 00:36:35;;;;;;;13.30;3.35;;;;;;;;;;5050024;28;20450;-60
2022/04/11 00:39:01;;;;;;;10.65;3.45;;;;;;;;;;5050891;28;20498;-58
2022/04/11 00:41:27;;;;;;;8.63;3.50;;;;;;;;;;5057668;28;20033;-60
2022/04/11 00:43:53;;;;;;;8.25;3.50;;;;;;;;;;5050318;28;20570;-61
2022/04/11 00:46:20;;;;;;;8.65;3.33;;;;;;;;;;5036651;28;20076;-60
2022/04/11 00:48:46;;;;;;;7.95;3.05;;;;;;;;;;5052417;28;20068;-59
2022/04/11 00:51:15;;;;;;;7.78;3.15;;;;;;;;;;5050713;28;20381;-59
2022/04/11 00:53:43;;;;;;;6.38;2.85;;;;;;;;;;5052436;28;20044;-59
2022/04/11 00:56:11;;;;;;;5.78;3.38;;;;;;;;;;5049711;28;20518;-59
2022/04/11 00:58:38;;;;;;;7.70;3.47;;;;;;;;;;5052980;28;20037;-59
2022/04/11 01:01:04;;;;;;;5.95;2.80;;;;;;;;;;5050985;28;20550;-61
2022/04/11 01:03:31;;;;;;;8.20;3.15;;;;;;;;;;5056333;28;20391;-59
2022/04/11 01:05:58;;;;;;;8.20;2.95;;;;;;;;;;5070219;28;20091;-60
2022/04/11 01:08:24;;;;;;;14.00;4.28;;;;;;;;;;5053278;28;20041;-59
2022/04/11 01:10:51;;;;;;;9.95;3.85;;;;;;;;;;5051413;28;20037;-60
2022/04/11 01:13:17;;;;;;;7.55;3.17;;;;;;;;;;5035356;28;20116;-60
2022/04/11 01:15:56;;;;;;;8.95;3.70;;;;;;;;;;5053707;28;20112;-59
2022/04/11 01:18:23;;;;;;;9.07;3.10;;;;;;;;;;5052347;28;20479;-59
2022/04/11 01:20:49;;;;;;;7.72;3.75;;;;;;;;;;5056592;28;20569;-59
2022/04/11 01:23:15;;;;;;;8.57;3.30;;;;;;;;;;5059866;28;20741;-59
2022/04/11 01:25:41;;;;;;;6.65;3.50;;;;;;;;;;5058031;28;20620;-60
2022/04/11 01:28:07;;;;;;;9.68;3.67;;;;;;;;;;5055872;28;20041;-59
2022/04/11 01:30:33;;;;;;;7.90;3.95;;;;;;;;;;5080246;28;20045;-59
2022/04/11 01:32:59;;;;;;;9.75;3.60;;;;;;;;;;5056172;28;20364;-58
2022/04/11 01:35:26;;;;;;;6.63;3.53;;;;;;;;;;5051122;28;20025;-59
2022/04/11 01:37:53;;;;;;;7.85;3.30;;;;;;;;;;5051402;28;20037;-60
2022/04/11 01:40:19;;;;;;;10.23;3.80;;;;;;;;;;5053788;28;20044;-59
2022/04/11 01:42:45;;;;;;;8.48;3.90;;;;;;;;;;5058080;28;20371;-60
2022/04/11 01:45:12;;;;;;;8.77;3.60;;;;;;;;;;5059237;28;20044;-59
2022/04/11 01:47:39;;;;;;;7.57;3.33;;;;;;;;;;5049982;28;20080;-58
2022/04/11 01:50:06;;;;;;;6.57;3.75;;;;;;;;;;5043793;28;20055;-59
2022/04/11 01:52:32;;;;;;;8.70;3.40;;;;;;;;;;5050156;28;20068;-59
2022/04/11 01:54:58;;;;;;;7.82;3.88;;;;;;;;;;5050049;28;20041;-59
2022/04/11 01:57:24;;;;;;;11.48;3.28;;;;;;;;;;5036592;28;20593;-60
2022/04/11 01:59:50;;;;;;;9.85;3.53;;;;;;;;;;5048089;28;20036;-59
2022/04/11 02:02:16;;;;;;;10.85;3.35;;;;;;;;;;5053675;28;20082;-60
2022/04/11 02:04:43;;;;;;;10.50;3.70;;;;;;;;;;5058194;28;20045;-60
2022/04/11 02:07:09;;;;;;;9.00;3.65;;;;;;;;;;5050518;28;20053;-61
2022/04/11 02:09:35;;;;;;;7.75;3.15;;;;;;;;;;5053111;28;20487;-60
2022/04/11 02:12:01;;;;;;;8.95;3.60;;;;;;;;;;5053345;28;20501;-59
2022/04/11 02:14:27;;;;;;;8.07;3.50;;;;;;;;;;5054890;28;20037;-59
2022/04/11 02:16:53;;;;;;;7.40;4.00;;;;;;;;;;5057561;28;20125;-60
2022/04/11 02:19:19;;;;;;;10.27;3.70;;;;;;;;;;5048557;28;20106;-59
2022/04/11 02:21:45;;;;;;;9.50;3.58;;;;;;;;;;5052007;28;20042;-59
2022/04/11 02:24:11;;;;;;;8.05;3.40;;;;;;;;;;5051117;28;20055;-59
2022/04/11 02:26:37;;;;;;;9.48;3.55;;;;;;;;;;5052291;28;20131;-60
2022/04/11 02:29:03;;;;;;;6.80;3.55;;;;;;;;;;5053874;28;20059;-59
2022/04/11 02:31:29;;;;;;;6.45;3.08;;;;;;;;;;5048862;28;20435;-59
2022/04/11 02:33:55;;;;;;;8.73;3.60;;;;;;;;;;5055378;28;20089;-60
2022/04/11 02:36:21;;;;;;;10.05;3.50;;;;;;;;;;5048201;28;20045;-60
2022/04/11 02:38:47;;;;;;;7.18;3.83;;;;;;;;;;5052250;28;20067;-60
2022/04/11 02:41:13;;;;;;;6.45;3.35;;;;;;;;;;5052402;28;20086;-58
2022/04/11 02:43:39;;;;;;;6.60;3.63;;;;;;;;;;5038946;28;20044;-61
2022/04/11 02:46:05;;;;;;;8.65;4.05;;;;;;;;;;5053406;28;20041;-60
2022/04/11 02:48:32;;;;;;;8.88;3.85;;;;;;;;;;5048676;28;20041;-61
2022/04/11 02:50:58;;;;;;;7.80;4.00;;;;;;;;;;5035204;28;20036;-60
2022/04/11 02:53:24;;;;;;;11.55;4.10;;;;;;;;;;5046736;28;20033;-60
2022/04/11 02:55:50;;;;;;;9.27;3.92;;;;;;;;;;5049774;28;20036;-59
2022/04/11 02:58:16;;;;;;;6.88;3.72;;;;;;;;;;5048291;28;20055;-61
2022/04/11 03:00:42;;;;;;;7.22;4.25;;;;;;;;;;5049348;28;20135;-59
2022/04/11 03:03:10;;;;;;;7.22;3.78;;;;;;;;;;5045664;28;20523;-60
2022/04/11 03:05:36;;;;;;;8.40;3.83;;;;;;;;;;5050020;28;20089;-59
2022/04/11 03:08:03;;;;;;;8.05;3.90;;;;;;;;;;5054711;28;20127;-60
2022/04/11 03:10:29;;;;;;;8.85;3.53;;;;;;;;;;5033705;28;20044;-60
2022/04/11 03:12:55;;;;;;;10.82;3.85;;;;;;;;;;5050425;28;20041;-60
2022/04/11 03:15:21;;;;;;;7.95;3.80;;;;;;;;;;5054683;28;20395;-61
2022/04/11 03:17:47;;;;;;;7.55;3.50;;;;;;;;;;5056750;28;20110;-60
2022/04/11 03:20:13;;;;;;;8.40;4.18;;;;;;;;;;5050169;28;20087;-59
2022/04/11 03:22:39;;;;;;;9.27;4.72;;;;;;;;;;5058669;28;20565;-60
2022/04/11 03:25:06;;;;;;;8.27;3.97;;;;;;;;;;5033581;28;20517;-59
2022/04/11 03:27:32;;;;;;;7.38;4.38;;;;;;;;;;5070025;28;20410;-59
2022/04/11 03:29:58;;;;;;;11.45;4.38;;;;;;;;;;5045125;28;20195;-60
2022/04/11 03:32:24;;;;;;;10.77;4.45;;;;;;;;;;5050020;28;20529;-60
2022/04/11 03:34:53;;;;;;;8.07;3.72;;;;;;;;;;5048749;28;20047;-61
2022/04/11 03:37:20;;;;;;;5.10;3.80;;;;;;;;;;5047822;28;20190;-60
2022/04/11 03:39:46;;;;;;;9.57;4.10;;;;;;;;;;5049976;28;20052;-61
2022/04/11 03:42:12;;;;;;;11.35;3.80;;;;;;;;;;5046273;28;20118;-59
2022/04/11 03:44:38;;;;;;;7.45;3.40;;;;;;;;;;5057797;28;20043;-60
2022/04/11 03:47:04;;;;;;;8.75;4.18;;;;;;;;;;5054592;28;20570;-60
2022/04/11 03:49:30;;;;;;;11.10;4.45;;;;;;;;;;5050904;28;20120;-61
2022/04/11 03:51:56;;;;;;;6.68;4.15;;;;;;;;;;5055355;28;20529;-60
2022/04/11 03:54:22;;;;;;;8.13;4.03;;;;;;;;;;5052330;28;20126;-60
2022/04/11 03:56:48;;;;;;;9.63;4.47;;;;;;;;;;5049657;28;20479;-60
2022/04/11 03:59:14;;;;;;;7.88;4.13;;;;;;;;;;5033613;28;20141;-60
2022/04/11 04:01:40;;;;;;;6.22;3.80;;;;;;;;;;5053264;28;20179;-60
2022/04/11 04:04:07;;;;;;;6.75;3.95;;;;;;;;;;5052364;28;20033;-59
2022/04/11 04:06:33;;;;;;;10.75;4.35;;;;;;;;;;5051538;28;20648;-59
2022/04/11 04:08:59;;;;;;;6.18;4.22;;;;;;;;;;5051022;28;20050;-62
2022/04/11 04:11:25;;;;;;;9.13;4.45;;;;;;;;;;5052651;28;20068;-60
2022/04/11 04:13:52;;;;;;;11.73;4.68;;;;;;;;;;5051276;28;20041;-60
2022/04/11 04:16:18;;;;;;;8.23;4.25;;;;;;;;;;5050349;28;20045;-60
2022/04/11 04:18:44;;;;;;;9.25;4.68;;;;;;;;;;5052955;28;20041;-60
2022/04/11 04:21:10;;;;;;;11.25;3.80;;;;;;;;;;5053931;28;20056;-60
2022/04/11 04:23:36;;;;;;;7.97;3.70;;;;;;;;;;5047672;28;20029;-61
2022/04/11 04:26:02;;;;;;;7.15;4.00;;;;;;;;;;5051996;28;20094;-61
2022/04/11 04:28:28;;;;;;;8.73;3.85;;;;;;;;;;5050888;28;20112;-60
2022/04/11 04:30:54;;;;;;;7.30;3.63;;;;;;;;;;5050689;28;20103;-59
2022/04/11 04:33:20;;;;;;;5.50;3.40;;;;;;;;;;5050873;28;20442;-61
2022/04/11 04:35:46;;;;;;;14.07;3.72;;;;;;;;;;5051510;28;20041;-59
2022/04/11 04:38:12;;;;;;;5.97;3.40;;;;;;;;;;5052320;28;20036;-59
2022/04/11 04:40:38;;;;;;;8.40;3.70;;;;;;;;;;5049681;28;20049;-60
2022/04/11 04:43:06;;;;;;;7.38;3.55;;;;;;;;;;5053726;28;20033;-59
2022/04/11 04:45:32;;;;;;;6.20;3.65;;;;;;;;;;5056780;28;20506;-60
2022/04/11 04:47:58;;;;;;;8.52;3.88;;;;;;;;;;5058162;28;20076;-59
2022/04/11 04:50:24;;;;;;;8.35;3.33;;;;;;;;;;5050901;28;20155;-60
2022/04/11 04:52:50;;;;;;;7.10;3.55;;;;;;;;;;5052812;28;20087;-61
2022/04/11 04:55:16;;;;;;;10.82;4.13;;;;;;;;;;5052953;28;20056;-59
2022/04/11 04:57:42;;;;;;;7.30;3.88;;;;;;;;;;5052865;28;20041;-60
2022/04/11 05:00:08;;;;;;;9.38;3.50;;;;;;;;;;5081091;28;20041;-59
2022/04/11 05:02:38;;;;;;;8.02;3.60;;;;;;;;;;5055131;28;20049;-60
2022/04/11 05:05:07;;;;;;;8.02;3.92;;;;;;;;;;5052246;28;20116;-60
2022/04/11 05:07:33;;;;;;;8.38;3.28;;;;;;;;;;5052058;28;20069;-60
2022/04/11 05:09:59;;;;;;;8.68;3.50;;;;;;;;;;5049893;28;20491;-60
2022/04/11 05:12:25;;;;;;;5.88;3.53;;;;;;;;;;5050715;28;20032;-59
2022/04/11 05:14:51;;;;;;;8.73;3.97;;;;;;;;;;5053427;28;20040;-59
2022/04/11 05:17:17;;;;;;;11.90;4.47;;;;;;;;;;5054820;28;20055;-60
2022/04/11 05:19:43;;;;;;;8.18;4.30;;;;;;;;;;5058598;28;20048;-60
2022/04/11 05:22:09;;;;;;;7.22;4.28;;;;;;;;;;5062921;28;20041;-61
2022/04/11 05:24:35;;;;;;;7.18;3.65;;;;;;;;;;5052001;28;20128;-61
2022/04/11 05:27:02;;;;;;;9.68;4.13;;;;;;;;;;5054650;28;20043;-60
2022/04/11 05:29:28;;;;;;;8.18;4.00;;;;;;;;;;5050546;28;20051;-61
2022/04/11 05:31:54;;;;;;;9.40;4.50;;;;;;;;;;5050264;28;20090;-60
2022/04/11 05:34:20;;;;;;;10.48;4.15;;;;;;;;;;5051032;28;20065;-62
2022/04/11 05:36:46;;;;;;;7.00;3.67;;;;;;;;;;5050643;28;20048;-62
2022/04/11 05:39:12;;;;;;;10.63;3.47;;;;;;;;;;5053168;28;20132;-62
2022/04/11 05:41:38;;;;;;;8.82;3.50;;;;;;;;;;5050216;28;20041;-61
2022/04/11 05:44:04;;;;;;;8.82;3.30;;;;;;;;;;5032040;28;20039;-60
2022/04/11 05:46:30;;;;;;;7.30;3.08;;;;;;;;;;5034350;28;20045;-61
2022/04/11 05:48:56;;;;;;;10.00;3.47;;;;;;;;;;5041488;28;20171;-61
2022/04/11 05:51:22;;;;;;;7.93;3.00;;;;;;;;;;5048591;28;20033;-61
2022/04/11 05:53:48;;;;;;;7.38;3.33;;;;;;;;;;5031988;28;20147;-61
2022/04/11 05:56:15;;;;;;;6.78;3.35;;;;;;;;;;5048821;28;20036;-62
2022/04/11 05:58:41;;;;;;;6.78;3.20;;;;;;;;;;5049661;28;20060;-60
2022/04/11 06:01:07;;;;;;;12.18;3.70;;;;;;;;;;5047201;28;20120;-60
2022/04/11 06:03:36;;;;;;;11.02;3.95;;;;;;;;;;5051214;28;20091;-61
2022/04/11 06:06:02;;;;;;;13.57;4.03;;;;;;;;;;5050592;28;20033;-61
2022/04/11 06:08:28;;;;;;;11.80;3.90;;;;;;;;;;5054285;28;20099;-62
2022/04/11 06:10:54;;;;;;;7.28;3.35;;;;;;;;;;5047381;28;20040;-61
2022/04/11 06:13:20;;;;;;;8.02;3.13;;;;;;;;;;5050281;28;20122;-61
2022/04/11 06:15:47;;;;;;;7.78;3.70;;;;;;;;;;5049861;28;20036;-61
2022/04/11 06:18:13;;;;;;;10.70;3.53;;;;;;;;;;5050191;28;20041;-61
2022/04/11 06:20:39;;;;;;;8.05;3.20;;;;;;;;;;5048053;28;20056;-61
2022/04/11 06:23:05;;;;;;;11.85;3.22;;;;;;;;;;5049311;28;20037;-62
2022/04/11 06:25:31;;;;;;;7.60;3.53;;;;;;;;;;5053421;28;20049;-61
2022/04/11 06:27:57;;;;;;;9.00;3.40;;;;;;;;;;5051051;28;20040;-61
2022/04/11 06:30:23;;;;;;;11.70;3.58;;;;;;;;;;5054320;28;20048;-61
2022/04/11 06:32:49;;;;;;;9.05;3.55;;;;;;;;;;5051088;28;20041;-61
2022/04/11 06:35:15;;;;;;;8.07;3.63;;;;;;;;;;5054458;28;20048;-62
2022/04/11 06:37:41;;;;;;;8.25;3.45;;;;;;;;;;5046150;28;20053;-61
2022/04/11 06:40:07;;;;;;;8.35;4.05;;;;;;;;;;5072719;28;20041;-63
2022/04/11 06:42:33;;;;;;;9.98;4.78;;;;;;;;;;5047199;28;20076;-61
2022/04/11 06:44:59;;;;;;;10.75;4.65;;;;;;;;;;5047062;28;20072;-61
2022/04/11 06:47:25;;;;;;;9.05;4.28;;;;;;;;;;5048156;28;20040;-62
2022/04/11 06:49:52;;;;;;;9.05;3.30;;;;;;;;;;5046148;28;20048;-63
2022/04/11 06:52:18;;;;;;;14.00;3.67;;;;;;;;;;5047807;28;20041;-61
2022/04/11 06:54:45;;;;;;;10.85;3.08;;;;;;;;;;5055161;28;20168;-62
2022/04/11 06:57:11;;;;;;;8.88;2.85;;;;;;;;;;5049651;28;20045;-62
2022/04/11 06:59:37;;;;;;;6.72;2.00;;;;;;;;;;5045995;28;20040;-61
2022/04/11 07:02:03;;;;;;;8.43;1.85;;;;;;;;;;5044951;28;20036;-62
2022/04/11 07:04:29;;;;;;;4.60;0.70;;;;;;;;;;5048169;28;20410;-62
2022/04/11 07:06:55;;;;;;;5.72;0.90;;;;;;;;;;5046265;28;20056;-62
2022/04/11 07:09:22;;;;;;;4.75;0.90;;;;;;;;;;5049181;28;20135;-61
2022/04/11 07:11:48;;;;;;;4.13;0.80;;;;;;;;;;5045855;28;20103;-61
2022/04/11 07:14:14;;;;;;;3.60;0.73;;;;;;;;;;5048975;28;20090;-61
2022/04/11 07:16:40;;;;;;;5.22;0.95;;;;;;;;;;5055625;28;20459;-62
2022/04/11 07:19:09;;;;;;;4.90;0.93;;;;;;;;;;5054102;28;20360;-60
2022/04/11 07:21:35;;;;;;;5.20;1.00;;;;;;;;;;5050737;28;20041;-61
2022/04/11 07:24:02;;;;;;;5.70;1.20;;;;;;;;;;5051953;28;20045;-61
2022/04/11 07:26:28;;;;;;;9.05;1.15;;;;;;;;;;5055745;28;20120;-61
2022/04/11 07:28:54;;;;;;;7.45;1.00;;;;;;;;;;5065108;28;20613;-61
2022/04/11 07:31:21;;;;;;;6.15;1.33;;;;;;;;;;5054981;28;20135;-61
2022/04/11 07:33:49;;;;;;;6.68;1.50;;;;;;;;;;5031890;28;20172;-60
2022/04/11 07:36:15;;;;;;;6.72;1.50;;;;;;;;;;5040424;28;20036;-61
2022/04/11 07:38:41;;;;;;;9.52;0.98;;;;;;;;;;5051792;28;20047;-61
2022/04/11 07:41:07;;;;;;;7.72;1.38;;;;;;;;;;5057687;28;20071;-61
2022/04/11 07:43:34;;;;;;;5.10;1.20;;;;;;;;;;5036149;28;20040;-61
2022/04/11 07:46:01;;;;;;;10.40;1.70;;;;;;;;;;5032875;28;20056;-61
2022/04/11 07:48:27;;;;;;;5.05;1.35;;;;;;;;;;5050756;28;20491;-62
2022/04/11 07:50:54;;;;;;;4.63;1.50;;;;;;;;;;5051174;28;20081;-61
2022/04/11 07:53:20;;;;;;;5.82;1.42;;;;;;;;;;5048570;28;20364;-61
2022/04/11 07:55:46;;;;;;;5.47;1.08;;;;;;;;;;5048732;28;20037;-61
2022/04/11 07:58:12;;;;;;;4.18;1.02;;;;;;;;;;5056658;28;20086;-62
2022/04/11 08:00:38;;;;;;;8.80;1.50;;;;;;;;;;5057215;28;20097;-61
2022/04/11 08:03:04;;;;;;;5.40;0.80;;;;;;;;;;5049592;28;20037;-62
2022/04/11 08:05:30;;;;;;;3.03;0.57;;;;;;;;;;5017525;28;20450;-61
2022/04/11 08:07:56;;;;;;;5.47;1.10;;;;;;;;;;5051344;28;20392;-62
2022/04/11 08:10:22;;;;;;;5.50;0.80;;;;;;;;;;5053810;28;20127;-62
2022/04/11 08:12:52;;;;;;;6.20;0.77;;;;;;;;;;5048678;28;20045;-61
2022/04/11 08:15:19;;;;;;;5.18;0.68;;;;;;;;;;5033762;28;20045;-61
2022/04/11 08:17:45;;;;;;;4.93;0.40;;;;;;;;;;5047443;28;20037;-62
2022/04/11 08:20:11;;;;;;;4.80;0.60;;;;;;;;;;5034195;28;20093;-62
2022/04/11 08:22:37;;;;;;;2.72;0.40;;;;;;;;;;5048945;28;20048;-61
2022/04/11 08:25:03;;;;;;;2.53;0.60;;;;;;;;;;5050711;28;20174;-63
2022/04/11 08:27:30;;;;;;;2.92;0.63;;;;;;;;;;5046695;28;20455;-61
2022/04/11 08:29:56;;;;;;;2.95;0.40;;;;;;;;;;5036184;28;20049;-62
2022/04/11 08:32:22;;;;;;;3.33;0.60;;;;;;;;;;5035901;28;20040;-61
2022/04/11 08:34:48;;;;;;;3.35;0.50;;;;;;;;;;5049540;28;20047;-61
2022/04/11 08:37:14;;;;;;;4.50;0.80;;;;;;;;;;5053570;28;20079;-62
2022/04/11 08:39:40;;;;;;;3.85;0.80;;;;;;;;;;5058931;28;20029;-61
2022/04/11 08:42:06;;;;;;;2.50;0.70;;;;;;;;;;5066628;28;20040;-61
2022/04/11 08:44:33;;;;;;;3.25;0.40;;;;;;;;;;5056786;28;20049;-60
2022/04/11 08:47:03;;;;;;;3.97;0.65;;;;;;;;;;5060337;28;20036;-60
2022/04/11 08:49:30;;;;;;;2.33;0.68;;;;;;;;;;5051597;28;20041;-60
2022/04/11 08:51:57;;;;;;;2.42;0.50;;;;;;;;;;5060704;28;20036;-59
2022/04/11 08:54:23;;;;;;;3.97;0.40;;;;;;;;;;5059364;28;20570;-61
2022/04/11 08:56:49;;;;;;;2.78;0.30;;;;;;;;;;5041141;28;20044;-60
2022/04/11 08:59:15;;;;;;;2.55;0.47;;;;;;;;;;5055107;28;20051;-60
2022/04/11 09:01:41;;;;;;;2.25;0.50;;;;;;;;;;5040044;28;20072;-59
2022/04/11 09:04:10;;;;;;;3.53;0.40;;;;;;;;;;5065328;28;20556;-60
2022/04/11 09:06:38;;;;;;;1.55;0.43;;;;;;;;;;5059488;28;20084;-59
2022/04/11 09:09:04;;;;;;;4.65;0.68;;;;;;;;;;5078002;28;20541;-60
2022/04/11 09:11:35;;;;;;;4.13;0.47;;;;;;;;;;5036571;28;20286;-61
2022/04/11 09:14:03;;;;;;;3.20;0.40;;;;;;;;;;5053529;28;20483;-60
2022/04/11 09:16:42;;;;;;;5.72;0.70;;;;;;;;;;5048574;28;20127;-61
2022/04/11 09:19:18;;;;;;;3.92;0.70;;;;;;;;;;5072904;28;20044;-60
2022/04/11 09:21:44;;;;;;;2.03;0.30;;;;;;;;;;5059569;28;20040;-60
2022/04/11 09:24:15;;;;;;;2.95;0.50;;;;;;;;;;5055699;28;20040;-59
2022/04/11 09:26:41;;;;;;;4.72;0.40;;;;;;;;;;5053414;28;20060;-60
2022/04/11 09:29:07;;;;;;;3.05;0.80;;;;;;;;;;5062164;28;20167;-61
2022/04/11 09:31:34;;;;;;;4.72;0.50;;;;;;;;;;5053849;28;20083;-60
2022/04/11 09:34:13;;;;;;;3.53;0.38;;;;;;;;;;5062679;28;20044;-59
2022/04/11 09:36:47;;;;;;;3.58;0.50;;;;;;;;;;5057719;28;20074;-60
2022/04/11 09:39:13;;;;;;;4.38;0.93;;;;;;;;;;5065405;28;20037;-60
2022/04/11 09:41:43;;;;;;;4.15;0.70;;;;;;;;;;5056080;28;20488;-60
2022/04/11 09:44:20;;;;;;;2.75;0.50;;;;;;;;;;5063079;28;20168;-61
2022/04/11 09:46:46;;;;;;;5.38;1.92;;;;;;;;;;5074338;28;20472;-60
2022/04/11 09:49:12;;;;;;;1.73;0.40;;;;;;;;;;5053377;28;20135;-61
2022/04/11 09:51:58;;;;;;;3.15;0.50;;;;;;;;;;5051247;28;20384;-60
2022/04/11 09:54:28;;;;;;;2.45;0.40;;;;;;;;;;5064261;28;20071;-62
2022/04/11 09:56:54;;;;;;;2.30;0.60;;;;;;;;;;5051564;28;20386;-61
2022/04/11 09:59:23;;;;;;;3.28;0.50;;;;;;;;;;5068606;28;20076;-61
2022/04/11 10:01:51;;;;;;;2.53;0.45;;;;;;;;;;5052062;28;20055;-60
2022/04/11 10:04:18;;;;;;;2.60;0.40;;;;;;;;;;5052011;28;20073;-60
2022/04/11 10:06:45;;;;;;;2.83;0.40;;;;;;;;;;5054042;28;20044;-60
2022/04/11 10:09:12;;;;;;;2.47;0.20;;;;;;;;;;5055073;28;20037;-60
2022/04/11 10:11:38;;;;;;;1.70;0.30;;;;;;;;;;5054114;28;20045;-61
2022/04/11 10:14:05;;;;;;;3.88;0.40;;;;;;;;;;5041887;28;20084;-62
2022/04/11 10:16:31;;;;;;;1.65;0.30;;;;;;;;;;5059673;28;20502;-62
2022/04/11 10:19:01;;;;;;;2.22;0.30;;;;;;;;;;5062730;28;20041;-62
2022/04/11 10:21:29;;;;;;;2.10;0.25;;;;;;;;;;5062812;28;20063;-62
2022/04/11 10:24:03;;;;;;;2.50;0.40;;;;;;;;;;5065918;28;20032;-63
2022/04/11 10:26:42;;;;;;;2.85;0.28;;;;;;;;;;5060154;28;20573;-62
2022/04/11 10:29:28;;;;;;;2.55;0.30;;;;;;;;;;5053082;28;20434;-62
2022/04/11 10:32:05;;;;;;;2.05;0.30;;;;;;;;;;5061198;28;20091;-63
2022/04/11 10:35:04;;;;;;;3.03;0.30;;;;;;;;;;5048179;28;20040;-62
2022/04/11 10:37:42;;;;;;;3.17;0.30;;;;;;;;;;5019556;28;20421;-62
2022/04/11 10:40:28;;;;;;;2.42;0.30;;;;;;;;;;5049734;28;20121;-61
2022/04/11 10:43:10;;;;;;;5.10;0.30;;;;;;;;;;5048162;28;20517;-62
2022/04/11 10:45:44;;;;;;;4.05;0.28;;;;;;;;;;5065177;28;20033;-62
2022/04/11 10:48:14;;;;;;;3.97;0.30;;;;;;;;;;5078494;28;20044;-62
2022/04/11 10:50:41;;;;;;;2.70;0.35;;;;;;;;;;5050282;28;20115;-62
2022/04/11 10:53:10;;;;;;;1.58;0.20;;;;;;;;;;5052907;28;20076;-61
2022/04/11 10:55:53;;;;;;;2.60;0.30;;;;;;;;;;5055504;28;20060;-62
2022/04/11 10:58:23;;;;;;;2.60;0.20;;;;;;;;;;5049502;28;20041;-62
2022/04/11 11:00:51;;;;;;;3.00;0.30;;;;;;;;;;5051038;28;20314;-61
2022/04/11 11:03:17;;;;;;;3.17;0.40;;;;;;;;;;5041226;28;20440;-62
2022/04/11 11:05:44;;;;;;;1.42;0.22;;;;;;;;;;5054645;28;20122;-62
2022/04/11 11:08:29;;;;;;;2.08;0.28;;;;;;;;;;5056055;28;20855;-62
2022/04/11 11:10:57;;;;;;;1.83;0.20;;;;;;;;;;5052636;28;20044;-62
2022/04/11 11:13:23;;;;;;;2.05;0.30;;;;;;;;;;5054737;28;20447;-62
2022/04/11 11:15:49;;;;;;;1.75;0.30;;;;;;;;;;5059250;28;20068;-62
2022/04/11 11:18:15;;;;;;;3.70;0.40;;;;;;;;;;5061676;28;20036;-61
2022/04/11 11:21:08;;;;;;;3.00;0.40;;;;;;;;;;5061196;28;20053;-63
2022/04/11 11:23:34;;;;;;;3.47;0.82;;;;;;;;;;5046310;28;20132;-62
2022/04/11 11:26:11;;;;;;;2.63;0.40;;;;;;;;;;5057223;28;20533;-61
2022/04/11 11:28:37;;;;;;;3.20;0.50;;;;;;;;;;5071047;28;20087;-62
2022/04/11 11:31:05;;;;;;;4.32;0.80;;;;;;;;;;5064438;28;20040;-63
2022/04/11 11:33:31;;;;;;;5.03;0.70;;;;;;;;;;5057388;28;20060;-63
2022/04/11 11:35:57;;;;;;;4.13;0.60;;;;;;;;;;5071089;28;20069;-63
2022/04/11 11:38:27;;;;;;;3.22;0.50;;;;;;;;;;5047911;28;20044;-63
2022/04/11 11:40:53;;;;;;;3.72;0.60;;;;;;;;;;5047622;28;20039;-63
2022/04/11 11:43:20;;;;;;;4.03;0.52;;;;;;;;;;5051323;28;20043;-63
2022/04/11 11:45:47;;;;;;;2.13;0.40;;;;;;;;;;5049104;28;20487;-62
2022/04/11 11:48:29;;;;;;;2.28;0.43;;;;;;;;;;5047524;28;20116;-62
2022/04/11 11:50:57;;;;;;;2.83;0.57;;;;;;;;;;5056812;28;20044;-63
2022/04/11 11:53:23;;;;;;;2.20;0.47;;;;;;;;;;5051496;28;20076;-62
2022/04/11 11:55:53;;;;;;;3.28;0.40;;;;;;;;;;5050985;28;20052;-62
2022/04/11 11:58:19;;;;;;;1.88;0.40;;;;;;;;;;5063828;28;20474;-62
2022/04/11 12:00:47;;;;;;;2.63;0.38;;;;;;;;;;5047662;28;20395;-63
2022/04/11 12:06:05;;;;;;;1.92;0.40;;;;;;;;;;5073306;28;20045;-62
2022/04/11 12:08:32;;;;;;;2.25;0.50;;;;;;;;;;5049028;28;20044;-62
2022/04/11 12:11:01;;;;;;;3.30;0.30;;;;;;;;;;5050849;28;20115;-62
2022/04/11 12:13:32;;;;;;;2.38;0.40;;;;;;;;;;5055764;28;21325;-62
2022/04/11 12:16:07;;;;;;;1.90;0.30;;;;;;;;;;5050285;28;20044;-62
2022/04/11 12:19:02;;;;;;;2.17;0.30;;;;;;;;;;5053812;28;20041;-63
2022/04/11 12:21:33;;;;;;;1.48;0.30;;;;;;;;;;5033495;28;20076;-62
2022/04/11 12:23:59;;;;;;;2.53;0.30;;;;;;;;;;5031940;28;20542;-62
2022/04/11 12:26:26;;;;;;;2.95;0.50;;;;;;;;;;5053016;28;20033;-62
2022/04/11 12:28:52;;;;;;;2.30;0.40;;;;;;;;;;5057190;28;20036;-62
2022/04/11 12:31:18;;;;;;;1.65;0.60;;;;;;;;;;5048206;28;20053;-63
2022/04/11 12:33:49;;;;;;;2.53;0.50;;;;;;;;;;5051319;28;20076;-62
2022/04/11 12:36:20;;;;;;;3.53;0.40;;;;;;;;;;5053407;28;20037;-62
2022/04/11 12:38:49;;;;;;;3.25;0.55;;;;;;;;;;5048414;28;20121;-62
2022/04/11 12:41:35;;;;;;;1.80;0.50;;;;;;;;;;5054614;28;20119;-63
2022/04/11 12:44:17;;;;;;;2.70;0.50;;;;;;;;;;5033181;28;20037;-62
2022/04/11 12:46:47;;;;;;;2.75;0.75;;;;;;;;;;5049496;28;20040;-63
2022/04/11 12:49:19;;;;;;;2.88;0.57;;;;;;;;;;5060626;28;20097;-62
2022/04/11 12:52:02;;;;;;;1.58;0.38;;;;;;;;;;5033268;28;20134;-63
2022/04/11 12:54:38;;;;;;;1.63;0.40;;;;;;;;;;5070606;28;20044;-63
2022/04/11 12:57:05;;;;;;;2.85;0.40;;;;;;;;;;5051973;28;20193;-62
2022/04/11 12:59:32;;;;;;;2.63;0.40;;;;;;;;;;5049642;28;20052;-64
2022/04/11 13:02:04;;;;;;;1.10;0.20;;;;;;;;;;5071725;28;20041;-63
2022/04/11 13:04:31;;;;;;;1.48;0.30;;;;;;;;;;5050752;28;20094;-62
2022/04/11 13:06:57;;;;;;;2.15;0.30;;;;;;;;;;5053169;28;20407;-62
2022/04/11 13:09:24;;;;;;;1.92;0.30;;;;;;;;;;5051040;28;20045;-62
2022/04/11 13:11:51;;;;;;;3.08;0.40;;;;;;;;;;5049761;28;20094;-63
2022/04/11 13:14:17;;;;;;;2.72;0.50;;;;;;;;;;5029107;28;20048;-62
2022/04/11 13:19:28;;;;;;;2.55;0.50;;;;;;;;;;5048404;28;20045;-63
2022/04/11 13:21:54;;;;;;;3.83;1.00;;;;;;;;;;5046186;28;20051;-63
2022/04/11 13:24:20;;;;;;;2.83;0.68;;;;;;;;;;5052001;28;20087;-63
2022/04/11 13:26:48;;;;;;;3.25;0.60;;;;;;;;;;5073065;28;20049;-63
2022/04/11 13:29:14;;;;;;;2.15;0.45;;;;;;;;;;5033558;28;20487;-64
2022/04/11 13:31:40;;;;;;;1.73;0.30;;;;;;;;;;5046645;28;20049;-62
2022/04/11 13:34:06;;;;;;;1.73;0.22;;;;;;;;;;5053535;28;20120;-63
2022/04/11 13:36:32;;;;;;;3.22;0.20;;;;;;;;;;5042801;28;20382;-63
2022/04/11 13:38:59;;;;;;;1.73;0.30;;;;;;;;;;5051058;28;20116;-61
2022/04/11 13:41:25;;;;;;;3.50;0.30;;;;;;;;;;5059178;28;20041;-63
2022/04/11 13:43:51;;;;;;;1.77;0.20;;;;;;;;;;5050656;28;20331;-62
2022/04/11 13:46:18;;;;;;;1.92;0.30;;;;;;;;;;5048945;28;20078;-63
2022/04/11 13:48:44;;;;;;;2.38;0.40;;;;;;;;;;5050611;28;20045;-65
2022/04/11 13:51:10;;;;;;;2.42;0.40;;;;;;;;;;5047020;28;20211;-62
2022/04/11 13:53:37;;;;;;;1.50;0.30;;;;;;;;;;5049263;28;20080;-62
2022/04/11 13:56:05;;;;;;;1.55;0.30;;;;;;;;;;5051635;28;20048;-63
2022/04/11 13:58:32;;;;;;;4.10;1.80;;;;;;;;;;5075359;28;20078;-62
2022/04/11 14:01:02;;;;;;;3.65;1.10;;;;;;;;;;5048931;28;20387;-62
2022/04/11 14:03:28;;;;;;;3.40;1.40;;;;;;;;;;5047100;28;20041;-62
2022/04/11 14:05:54;;;;;;;3.92;1.08;;;;;;;;;;5053488;28;20032;-61
2022/04/11 14:08:22;;;;;;;4.97;1.00;;;;;;;;;;5052083;28;20095;-62
2022/04/11 14:10:50;;;;;;;7.55;1.45;;;;;;;;;;5051598;28;20514;-62
2022/04/11 14:13:16;;;;;;;8.40;1.60;;;;;;;;;;5071643;28;20491;-62
2022/04/11 14:15:42;;;;;;;7.15;1.60;;;;;;;;;;5048898;28;20052;-61
2022/04/11 14:18:08;;;;;;;4.95;1.60;;;;;;;;;;5039676;28;20045;-61
2022/04/11 14:20:34;;;;;;;9.98;2.22;;;;;;;;;;5048854;28;20286;-62
2022/04/11 14:23:01;;;;;;;8.32;2.17;;;;;;;;;;5055341;28;20134;-62
2022/04/11 14:25:30;;;;;;;8.25;2.20;;;;;;;;;;5049698;28;20530;-62
2022/04/11 14:27:56;;;;;;;10.23;1.70;;;;;;;;;;5053455;28;20091;-62
2022/04/11 14:30:22;;;;;;;7.32;1.63;;;;;;;;;;5040498;28;20047;-62
2022/04/11 14:32:48;;;;;;;8.75;1.77;;;;;;;;;;5061693;28;20036;-62
2022/04/11 14:35:14;;;;;;;7.60;1.90;;;;;;;;;;5060615;28;20043;-62
2022/04/11 14:37:46;;;;;;;9.50;1.90;;;;;;;;;;5060491;28;20499;-62
2022/04/11 14:40:12;;;;;;;7.93;1.48;;;;;;;;;;5047022;28;20029;-63
2022/04/11 14:42:38;;;;;;;4.93;1.15;;;;;;;;;;5048787;28;20581;-63
2022/04/11 14:45:04;;;;;;;7.78;1.63;;;;;;;;;;5029107;28;20047;-62
2022/04/11 14:47:30;;;;;;;7.45;1.77;;;;;;;;;;5049057;28;20068;-62